createdAt,value
2023-03-19T00:00:46.874Z,2.78
2023-03-19T00:03:16.043Z,2.77
2023-03-19T00:05:53.271Z,2.78
2023-03-19T00:08:22.865Z,2.79
2023-03-19T00:10:52.962Z,2.80
2023-03-19T00:13:21.759Z,2.83
2023-03-19T00:15:52.398Z,2.86
2023-03-19T00:18:23.655Z,2.90
2023-03-19T00:20:56.223Z,2.93
2023-03-19T00:23:25.883Z,2.95
2023-03-19T00:25:56.824Z,2.97
2023-03-19T00:28:31.069Z,2.98
2023-03-19T00:31:15.379Z,2.97
2023-03-19T00:33:44.142Z,2.97
2023-03-19T00:36:12.985Z,3.00
2023-03-19T00:38:43.934Z,3.01
2023-03-19T00:41:13.081Z,3.03
2023-03-19T00:43:41.432Z,3.06
2023-03-19T00:46:09.927Z,3.08
2023-03-19T00:48:38.400Z,3.07
2023-03-19T00:51:08.800Z,3.06
2023-03-19T00:53:42.357Z,3.03
2023-03-19T00:56:12.775Z,3.00
2023-03-19T00:58:42.522Z,2.97
2023-03-19T01:01:13.052Z,2.92
2023-03-19T01:03:41.890Z,2.88
2023-03-19T01:06:10.370Z,2.84
2023-03-19T01:08:41.764Z,2.82
2023-03-19T01:11:14.854Z,2.78
2023-03-19T01:13:43.942Z,2.72
2023-03-19T01:16:12.969Z,2.69
2023-03-19T01:18:41.639Z,2.68
2023-03-19T01:21:10.835Z,2.65
2023-03-19T01:23:46.128Z,2.61
2023-03-19T01:26:17.138Z,2.57
2023-03-19T01:28:48.447Z,2.55
2023-03-19T01:31:17.327Z,2.51
2023-03-19T01:34:15.711Z,2.43
2023-03-19T01:36:51.255Z,2.36
2023-03-19T01:39:27.813Z,2.33
2023-03-19T01:42:01.991Z,2.30
2023-03-19T01:44:38.574Z,2.24
2023-03-19T01:47:32.072Z,2.16
2023-03-19T01:50:32.545Z,2.07
2023-03-19T01:53:33.910Z,2.01
2023-03-19T01:56:16.259Z,1.96
2023-03-19T01:59:23.513Z,1.92
2023-03-19T02:02:14.147Z,1.89
2023-03-19T02:04:44.133Z,1.83
2023-03-19T02:07:13.979Z,1.78
2023-03-19T02:09:44.118Z,1.73
2023-03-19T02:12:12.743Z,1.70
2023-03-19T02:14:47.528Z,1.69
2023-03-19T02:17:16.103Z,1.67
2023-03-19T02:19:57.701Z,1.64
2023-03-19T02:22:32.156Z,1.64
2023-03-19T02:25:07.385Z,1.62
2023-03-19T02:27:36.363Z,1.59
2023-03-19T02:30:41.362Z,1.58
2023-03-19T02:33:13.971Z,1.56
2023-03-19T02:35:46.885Z,1.54
2023-03-19T02:38:15.895Z,1.53
2023-03-19T02:41:06.958Z,1.50
2023-03-19T02:43:36.964Z,1.49
2023-03-19T02:46:07.624Z,1.45
2023-03-19T02:48:39.046Z,1.42
2023-03-19T02:51:08.743Z,1.40
2023-03-19T02:53:43.241Z,1.38
2023-03-19T02:56:13.144Z,1.38
2023-03-19T02:58:42.093Z,1.37
2023-03-19T03:01:10.504Z,1.36
2023-03-19T03:03:39.503Z,1.37
2023-03-19T03:06:07.849Z,1.37
2023-03-19T03:08:39.014Z,1.37
2023-03-19T03:11:08.007Z,1.34
2023-03-19T03:13:42.354Z,1.33
2023-03-19T03:16:10.571Z,1.33
2023-03-19T03:18:38.813Z,1.34
2023-03-19T03:21:07.574Z,1.34
2023-03-19T03:23:42.182Z,1.34
2023-03-19T03:26:10.553Z,1.34
2023-03-19T03:28:39.594Z,1.34
2023-03-19T03:31:09.580Z,1.34
2023-03-19T03:33:39.767Z,1.34
2023-03-19T03:36:08.676Z,1.35
2023-03-19T03:38:37.153Z,1.35
2023-03-19T03:41:09.668Z,1.36
2023-03-19T03:43:39.818Z,1.35
2023-03-19T03:46:10.115Z,1.30
2023-03-19T03:48:41.779Z,1.25
2023-03-19T03:51:10.359Z,1.20
2023-03-19T03:53:45.535Z,1.19
2023-03-19T03:56:14.478Z,1.20
2023-03-19T03:58:43.220Z,1.22
2023-03-19T04:01:18.130Z,1.26
2023-03-19T04:03:47.831Z,1.29
2023-03-19T04:06:17.726Z,1.29
2023-03-19T04:08:47.279Z,1.28
2023-03-19T04:11:16.127Z,1.26
2023-03-19T04:13:49.431Z,1.26
2023-03-19T04:16:17.861Z,1.28
2023-03-19T04:18:46.582Z,1.29
2023-03-19T04:21:14.890Z,1.29
2023-03-19T04:23:43.510Z,1.31
2023-03-19T04:26:12.376Z,1.32
2023-03-19T04:28:43.632Z,1.33
2023-03-19T04:31:12.631Z,1.37
2023-03-19T04:33:45.905Z,1.40
2023-03-19T04:36:14.132Z,1.41
2023-03-19T04:38:42.506Z,1.39
2023-03-19T04:41:36.914Z,1.37
2023-03-19T04:44:16.969Z,1.38
2023-03-19T04:46:46.506Z,1.42
2023-03-19T04:49:15.989Z,1.45
2023-03-19T04:51:44.767Z,1.46
2023-03-19T04:54:13.357Z,1.47
2023-03-19T04:56:42.278Z,1.51
2023-03-19T04:59:15.890Z,1.56
2023-03-19T05:01:45.421Z,1.62
2023-03-19T05:04:14.689Z,1.67
2023-03-19T05:06:45.066Z,1.71
2023-03-19T05:09:13.902Z,1.77
2023-03-19T05:11:42.956Z,1.81
2023-03-19T05:14:15.592Z,1.85
2023-03-19T05:17:11.321Z,1.88
2023-03-19T05:19:53.358Z,1.91
2023-03-19T05:22:22.641Z,1.91
2023-03-19T05:24:51.123Z,1.92
2023-03-19T05:27:19.495Z,1.96
2023-03-19T05:30:01.722Z,2.02
2023-03-19T05:32:48.063Z,2.07
2023-03-19T05:35:25.104Z,2.15
2023-03-19T05:37:54.089Z,2.20
2023-03-19T05:40:23.432Z,2.26
2023-03-19T05:42:52.475Z,2.31
2023-03-19T05:45:27.484Z,2.38
2023-03-19T05:47:59.300Z,2.43
2023-03-19T05:50:27.852Z,2.50
2023-03-19T05:53:19.828Z,2.56
2023-03-19T05:56:01.686Z,2.64
2023-03-19T05:58:31.980Z,2.73
2023-03-19T06:01:00.749Z,2.81
2023-03-19T06:03:29.439Z,2.89
2023-03-19T06:06:02.019Z,3.00
2023-03-19T06:08:43.370Z,3.12
2023-03-19T06:11:39.650Z,3.24
2023-03-19T06:14:28.192Z,3.37
2023-03-19T06:17:15.117Z,3.50
2023-03-19T06:19:43.434Z,3.61
2023-03-19T06:22:12.234Z,3.74
2023-03-19T06:24:40.640Z,3.87
2023-03-19T06:27:11.307Z,4.02
2023-03-19T06:29:41.775Z,4.16
2023-03-19T06:32:19.252Z,4.28
2023-03-19T06:34:49.518Z,4.38
2023-03-19T06:37:19.007Z,4.49
2023-03-19T06:39:49.862Z,4.56
2023-03-19T06:42:18.219Z,4.64
2023-03-19T06:44:46.570Z,4.72
2023-03-19T06:47:15.737Z,4.80
2023-03-19T06:49:44.294Z,4.93
2023-03-19T06:52:12.553Z,5.11
2023-03-19T06:54:41.289Z,5.29
2023-03-19T06:57:09.874Z,5.43
2023-03-19T06:59:38.489Z,5.55
2023-03-19T07:02:08.394Z,5.69
2023-03-19T07:04:37.934Z,5.87
2023-03-19T07:07:06.614Z,6.12
2023-03-19T07:09:35.134Z,6.36
2023-03-19T07:12:06.106Z,6.58
2023-03-19T07:14:37.718Z,6.78
2023-03-19T07:17:08.024Z,6.94
2023-03-19T07:19:45.869Z,7.08
2023-03-19T07:22:14.130Z,7.15
2023-03-19T07:24:42.620Z,7.20
2023-03-19T07:27:12.367Z,7.24
2023-03-19T07:29:40.744Z,7.25
2023-03-19T07:32:10.870Z,7.25
2023-03-19T07:34:41.804Z,7.28
2023-03-19T07:37:11.052Z,7.31
2023-03-19T07:39:39.963Z,7.34
2023-03-19T07:42:08.264Z,7.35
2023-03-19T07:44:36.610Z,7.33
2023-03-19T07:47:16.061Z,7.31
2023-03-19T07:49:51.668Z,7.30
2023-03-19T07:52:19.829Z,7.30
2023-03-19T07:54:48.379Z,7.33
2023-03-19T07:57:16.771Z,7.43
2023-03-19T07:59:45.697Z,7.52
2023-03-19T08:02:15.190Z,7.66
2023-03-19T08:04:43.934Z,7.79
2023-03-19T08:07:14.233Z,7.93
2023-03-19T08:09:42.917Z,8.01
2023-03-19T08:12:11.621Z,8.05
2023-03-19T08:14:47.473Z,8.15
2023-03-19T08:17:16.150Z,8.28
2023-03-19T08:19:44.510Z,8.42
2023-03-19T08:22:15.741Z,8.51
2023-03-19T08:24:44.201Z,8.59
2023-03-19T08:27:12.510Z,8.65
2023-03-19T08:29:40.718Z,8.65
2023-03-19T08:32:09.286Z,8.64
2023-03-19T08:34:40.710Z,8.57
2023-03-19T08:37:08.910Z,8.36
2023-03-19T08:39:37.163Z,8.16
2023-03-19T08:42:06.131Z,7.96
2023-03-19T08:44:35.241Z,7.83
2023-03-19T08:47:04.250Z,7.79
2023-03-19T08:49:34.254Z,7.84
2023-03-19T08:52:02.586Z,7.94
2023-03-19T08:54:31.119Z,8.11
2023-03-19T08:57:01.284Z,8.29
2023-03-19T08:59:31.446Z,8.41
2023-03-19T09:02:01.178Z,8.50
2023-03-19T09:04:30.296Z,8.66
2023-03-19T09:06:58.721Z,8.83
2023-03-19T09:09:28.160Z,9.09
2023-03-19T09:11:58.486Z,9.30
2023-03-19T09:14:27.390Z,9.32
2023-03-19T09:16:55.862Z,9.34
2023-03-19T09:19:24.835Z,9.46
2023-03-19T09:21:55.793Z,9.62
2023-03-19T09:24:24.561Z,9.81
2023-03-19T09:26:53.084Z,10.02
2023-03-19T09:29:21.946Z,10.26
2023-03-19T09:31:52.880Z,10.49
2023-03-19T09:34:21.347Z,10.69
2023-03-19T09:36:49.894Z,10.87
2023-03-19T09:39:18.425Z,11.04
2023-03-19T09:42:03.793Z,11.17
2023-03-19T09:44:38.315Z,11.25
2023-03-19T09:47:29.780Z,11.32
2023-03-19T09:50:02.248Z,11.48
2023-03-19T09:52:41.535Z,11.62
2023-03-19T09:55:26.243Z,11.75
2023-03-19T09:57:56.493Z,11.76
2023-03-19T10:00:30.309Z,11.70
2023-03-19T10:03:05.528Z,11.59
2023-03-19T10:05:57.265Z,11.53
2023-03-19T10:08:43.079Z,11.47
2023-03-19T10:11:36.664Z,11.46
2023-03-19T10:14:17.281Z,11.54
2023-03-19T10:17:19.038Z,11.54
2023-03-19T10:20:20.473Z,11.76
2023-03-19T10:23:04.192Z,12.03
2023-03-19T10:25:34.411Z,12.21
2023-03-19T10:28:33.304Z,12.25
2023-03-19T10:31:13.988Z,12.35
2023-03-19T10:33:58.716Z,12.53
2023-03-19T10:36:31.259Z,12.72
2023-03-19T10:38:59.541Z,12.91
2023-03-19T10:41:55.413Z,13.01
2023-03-19T10:44:54.073Z,13.03
2023-03-19T10:47:25.269Z,13.09
2023-03-19T10:49:57.209Z,13.18
2023-03-19T10:52:32.461Z,13.22
2023-03-19T10:55:19.375Z,13.29
2023-03-19T10:57:50.465Z,13.40
2023-03-19T11:00:23.023Z,13.48
2023-03-19T11:02:56.981Z,13.56
2023-03-19T11:05:25.279Z,13.63
2023-03-19T11:08:06.260Z,13.70
2023-03-19T11:10:35.475Z,13.73
2023-03-19T11:13:22.563Z,13.76
2023-03-19T11:15:52.425Z,13.81
2023-03-19T11:18:37.634Z,13.84
2023-03-19T11:21:08.623Z,13.90
2023-03-19T11:23:43.913Z,13.98
2023-03-19T11:26:13.387Z,14.09
2023-03-19T11:28:42.978Z,14.15
2023-03-19T11:31:13.043Z,14.28
2023-03-19T11:33:50.670Z,14.36
2023-03-19T11:36:27.572Z,14.41
2023-03-19T11:39:30.027Z,14.48
2023-03-19T11:42:30.000Z,14.52
2023-03-19T11:45:13.764Z,14.49
2023-03-19T11:47:53.100Z,14.43
2023-03-19T11:50:41.573Z,14.45
2023-03-19T11:53:37.053Z,14.53
2023-03-19T11:56:19.669Z,14.66
2023-03-19T11:59:41.623Z,14.75
2023-03-19T12:02:52.864Z,14.79
2023-03-19T12:05:44.255Z,14.83
2023-03-19T12:08:21.409Z,15.00
2023-03-19T12:10:58.652Z,15.16
2023-03-19T12:13:45.822Z,15.28
2023-03-19T12:16:44.131Z,15.40
2023-03-19T12:19:46.128Z,15.50
2023-03-19T12:22:28.204Z,15.58
2023-03-19T12:25:10.239Z,15.69
2023-03-19T12:27:48.470Z,15.77
2023-03-19T12:30:41.980Z,15.80
2023-03-19T12:33:21.133Z,15.83
2023-03-19T12:35:50.404Z,15.81
2023-03-19T12:38:40.038Z,15.85
2023-03-19T12:41:28.458Z,15.93
2023-03-19T12:44:13.958Z,16.05
2023-03-19T12:46:51.933Z,16.11
2023-03-19T12:49:28.611Z,16.22
2023-03-19T12:52:19.143Z,16.35
2023-03-19T12:55:11.004Z,16.39
2023-03-19T12:58:02.171Z,16.22
2023-03-19T13:00:39.012Z,16.17
2023-03-19T13:03:23.260Z,16.16
2023-03-19T13:06:33.390Z,16.16
2023-03-19T13:09:05.793Z,16.05
2023-03-19T13:11:34.007Z,16.13
2023-03-19T13:14:14.725Z,16.08
2023-03-19T13:17:02.145Z,15.88
2023-03-19T13:19:45.116Z,15.97
2023-03-19T13:22:15.954Z,16.24
2023-03-19T13:24:46.931Z,16.47
2023-03-19T13:27:24.132Z,16.66
2023-03-19T13:30:17.938Z,16.80
2023-03-19T13:33:06.823Z,16.83
2023-03-19T13:35:51.080Z,16.75
2023-03-19T13:38:41.101Z,16.71
2023-03-19T13:41:34.764Z,16.70
2023-03-19T13:44:21.886Z,16.60
2023-03-19T13:46:51.565Z,16.56
2023-03-19T13:49:19.987Z,16.41
2023-03-19T13:51:49.176Z,16.31
2023-03-19T13:54:23.651Z,16.28
2023-03-19T13:57:05.053Z,16.33
2023-03-19T13:59:38.716Z,16.54
2023-03-19T14:02:16.092Z,16.59
2023-03-19T14:04:50.921Z,16.58
2023-03-19T14:07:22.896Z,16.59
2023-03-19T14:09:57.617Z,16.48
2023-03-19T14:12:36.636Z,16.18
2023-03-19T14:15:25.163Z,15.90
2023-03-19T14:18:03.704Z,15.66
2023-03-19T14:20:40.581Z,15.46
2023-03-19T14:23:23.324Z,15.23
2023-03-19T14:26:05.612Z,15.09
2023-03-19T14:29:07.484Z,14.97
2023-03-19T14:32:03.883Z,14.74
2023-03-19T14:34:48.282Z,14.59
2023-03-19T14:37:28.847Z,14.47
2023-03-19T14:40:40.160Z,14.27
2023-03-19T14:43:15.138Z,14.04
2023-03-19T14:46:00.242Z,13.92
2023-03-19T14:48:53.377Z,13.76
2023-03-19T14:51:40.160Z,13.54
2023-03-19T14:54:31.030Z,13.33
2023-03-19T14:57:06.509Z,13.17
2023-03-19T14:59:39.577Z,13.00
2023-03-19T15:02:22.860Z,12.86
2023-03-19T15:04:51.370Z,12.76
2023-03-19T15:07:31.139Z,12.71
2023-03-19T15:10:06.458Z,12.70
2023-03-19T15:12:58.365Z,12.65
2023-03-19T15:15:32.866Z,12.62
2023-03-19T15:18:09.482Z,12.63
2023-03-19T15:20:51.004Z,12.58
2023-03-19T15:23:26.783Z,12.47
2023-03-19T15:26:01.473Z,12.39
2023-03-19T15:28:53.826Z,12.32
2023-03-19T15:31:36.668Z,12.20
2023-03-19T15:34:24.361Z,12.07
2023-03-19T15:37:11.866Z,12.02
2023-03-19T15:39:43.127Z,11.99
2023-03-19T15:42:17.060Z,11.96
2023-03-19T15:44:50.072Z,11.90
2023-03-19T15:47:21.661Z,11.83
2023-03-19T15:49:56.975Z,11.75
2023-03-19T15:52:25.730Z,11.63
2023-03-19T15:55:01.714Z,11.48
2023-03-19T15:57:31.169Z,11.38
2023-03-19T15:59:59.653Z,11.27
2023-03-19T16:02:32.674Z,11.18
2023-03-19T16:07:57.648Z,11.02
2023-03-19T16:10:39.849Z,10.92
2023-03-19T16:13:30.989Z,10.84
2023-03-19T16:16:06.261Z,10.77
2023-03-19T16:18:51.681Z,10.72
2023-03-19T16:21:28.539Z,10.71
2023-03-19T16:24:12.435Z,10.70
2023-03-19T16:26:43.750Z,10.64
2023-03-19T16:29:27.812Z,10.58
2023-03-19T16:32:01.916Z,10.53
2023-03-19T16:34:42.553Z,10.46
2023-03-19T16:37:42.639Z,10.37
2023-03-19T16:40:15.733Z,10.28
2023-03-19T16:42:56.194Z,10.15
2023-03-19T16:45:29.990Z,10.02
2023-03-19T16:47:59.624Z,9.87
2023-03-19T16:50:29.866Z,9.78
2023-03-19T16:52:59.663Z,9.71
2023-03-19T16:55:32.174Z,9.61
2023-03-19T16:58:03.964Z,9.45
2023-03-19T17:00:32.621Z,9.34
2023-03-19T17:03:01.545Z,9.24
2023-03-19T17:05:29.877Z,9.16
2023-03-19T17:07:59.179Z,9.08
2023-03-19T17:10:29.125Z,9.02
2023-03-19T17:12:57.433Z,8.93
2023-03-19T17:15:37.702Z,8.84
2023-03-19T17:18:36.603Z,8.76
2023-03-19T17:21:16.881Z,8.66
2023-03-19T17:23:46.745Z,8.58
2023-03-19T17:26:27.699Z,8.49
2023-03-19T17:28:56.732Z,8.40
2023-03-19T17:31:32.804Z,8.29
2023-03-19T17:34:20.518Z,8.15
2023-03-19T17:36:51.419Z,8.07
2023-03-19T17:39:20.042Z,7.99
2023-03-19T17:41:54.332Z,7.88
2023-03-19T17:44:22.874Z,7.75
2023-03-19T17:46:53.396Z,7.65
2023-03-19T17:49:24.090Z,7.56
2023-03-19T17:51:52.642Z,7.48
2023-03-19T17:54:21.427Z,7.38
2023-03-19T17:56:50.464Z,7.28
2023-03-19T17:59:18.839Z,7.21
2023-03-19T18:01:47.459Z,7.17
2023-03-19T18:04:17.872Z,7.11
2023-03-19T18:06:51.374Z,7.08
2023-03-19T18:09:28.584Z,7.06
2023-03-19T18:11:57.008Z,7.03
2023-03-19T18:14:50.668Z,6.98
2023-03-19T18:17:50.978Z,6.91
2023-03-19T18:20:21.597Z,6.84
2023-03-19T18:22:51.115Z,6.78
2023-03-19T18:25:22.015Z,6.71
2023-03-19T18:27:51.998Z,6.66
2023-03-19T18:30:23.009Z,6.62
2023-03-19T18:32:54.784Z,6.59
2023-03-19T18:35:30.976Z,6.51
2023-03-19T18:37:59.541Z,6.40
2023-03-19T18:40:29.575Z,6.28
2023-03-19T18:43:03.190Z,6.17
2023-03-19T18:45:33.279Z,6.11
2023-03-19T18:48:01.574Z,6.08
2023-03-19T18:50:30.530Z,6.06
2023-03-19T18:52:59.382Z,6.05
2023-03-19T18:55:30.185Z,6.03
2023-03-19T18:58:01.539Z,5.97
2023-03-19T19:00:32.706Z,5.92
2023-03-19T19:03:01.559Z,5.87
2023-03-19T19:05:31.561Z,5.82
2023-03-19T19:08:01.363Z,5.79
2023-03-19T19:10:32.936Z,5.73
2023-03-19T19:13:01.799Z,5.67
2023-03-19T19:15:35.295Z,5.64
2023-03-19T19:18:20.664Z,5.62
2023-03-19T19:20:51.491Z,5.59
2023-03-19T19:23:21.860Z,5.55
2023-03-19T19:25:52.288Z,5.51
2023-03-19T19:28:22.310Z,5.48
2023-03-19T19:30:51.956Z,5.47
2023-03-19T19:33:21.887Z,5.45
2023-03-19T19:35:52.175Z,5.43
2023-03-19T19:38:21.263Z,5.40
2023-03-19T19:40:51.628Z,5.38
2023-03-19T19:43:25.556Z,5.33
2023-03-19T19:45:54.685Z,5.25
2023-03-19T19:48:27.749Z,5.19
2023-03-19T19:50:59.541Z,5.15
2023-03-19T19:53:29.640Z,5.10
2023-03-19T19:56:15.867Z,5.05
2023-03-19T19:58:45.013Z,5.01
2023-03-19T20:01:18.741Z,4.96
2023-03-19T20:03:47.653Z,4.88
2023-03-19T20:06:15.936Z,4.83
2023-03-19T20:08:44.979Z,4.78
2023-03-19T20:11:21.379Z,4.72
2023-03-19T20:13:52.652Z,4.65
2023-03-19T20:16:24.835Z,4.63
2023-03-19T20:18:54.928Z,4.64
2023-03-19T20:21:23.343Z,4.63
2023-03-19T20:23:55.574Z,4.60
2023-03-19T20:26:25.183Z,4.61
2023-03-19T20:28:54.804Z,4.63
2023-03-19T20:31:29.802Z,4.66
2023-03-19T20:33:58.179Z,4.64
2023-03-19T20:36:26.847Z,4.61
2023-03-19T20:38:55.057Z,4.60
2023-03-19T20:41:27.131Z,4.59
2023-03-19T20:43:56.080Z,4.57
2023-03-19T20:46:28.835Z,4.51
2023-03-19T20:48:57.464Z,4.41
2023-03-19T20:51:28.142Z,4.31
2023-03-19T20:53:59.131Z,4.23
2023-03-19T20:56:28.182Z,4.14
2023-03-19T20:58:58.970Z,4.09
2023-03-19T21:01:27.371Z,4.03
2023-03-19T21:03:55.725Z,3.93
2023-03-19T21:06:26.033Z,3.81
2023-03-19T21:08:58.703Z,3.79
2023-03-19T21:11:45.758Z,3.81
2023-03-19T21:14:16.286Z,3.83
2023-03-19T21:16:44.572Z,3.83
2023-03-19T21:19:14.850Z,3.84
2023-03-19T21:21:43.598Z,3.79
2023-03-19T21:24:17.315Z,3.72
2023-03-19T21:26:47.491Z,3.66
2023-03-19T21:29:26.266Z,3.63
2023-03-19T21:31:59.396Z,3.62
2023-03-19T21:34:28.704Z,3.60
2023-03-19T21:36:57.783Z,3.57
2023-03-19T21:39:26.516Z,3.53
2023-03-19T21:41:57.222Z,3.45
2023-03-19T21:44:29.874Z,3.37
2023-03-19T21:46:58.512Z,3.33
2023-03-19T21:49:27.123Z,3.30
2023-03-19T21:51:57.192Z,3.26
2023-03-19T21:54:26.282Z,3.22
2023-03-19T21:56:59.073Z,3.17
2023-03-19T21:59:32.377Z,3.12
2023-03-19T22:02:01.727Z,3.10
2023-03-19T22:04:30.317Z,3.10
2023-03-19T22:06:58.762Z,3.11
2023-03-19T22:09:29.248Z,3.13
2023-03-19T22:12:00.408Z,3.12
2023-03-19T22:14:28.969Z,3.07
2023-03-19T22:16:57.369Z,2.98
2023-03-19T22:19:26.893Z,2.90
2023-03-19T22:21:55.333Z,2.86
2023-03-19T22:24:24.809Z,2.81
2023-03-19T22:26:56.609Z,2.79
2023-03-19T22:29:25.759Z,2.81
2023-03-19T22:31:55.021Z,2.83
2023-03-19T22:34:26.095Z,2.84
2023-03-19T22:36:55.926Z,2.85
2023-03-19T22:39:25.349Z,2.84
2023-03-19T22:41:55.854Z,2.78
2023-03-19T22:44:26.991Z,2.69
2023-03-19T22:46:56.284Z,2.63
2023-03-19T22:49:24.973Z,2.57
2023-03-19T22:51:53.334Z,2.51
2023-03-19T22:54:21.575Z,2.48
2023-03-19T22:56:50.407Z,2.47
2023-03-19T22:59:21.685Z,2.46
2023-03-19T23:01:50.503Z,2.46
2023-03-19T23:04:28.849Z,2.46
2023-03-19T23:07:00.230Z,2.43
2023-03-19T23:09:33.057Z,2.37
2023-03-19T23:12:02.376Z,2.33
2023-03-19T23:14:32.457Z,2.33
2023-03-19T23:17:03.938Z,2.31
2023-03-19T23:19:37.180Z,2.26
2023-03-19T23:22:06.530Z,2.23
2023-03-19T23:24:35.178Z,2.18
2023-03-19T23:27:04.614Z,2.16
2023-03-19T23:29:43.695Z,2.15
2023-03-19T23:32:11.938Z,2.15
2023-03-19T23:34:56.268Z,2.15
2023-03-19T23:37:26.340Z,2.14
2023-03-19T23:39:56.505Z,2.14
2023-03-19T23:42:29.654Z,2.12
2023-03-19T23:44:59.066Z,2.07
2023-03-19T23:47:27.457Z,2.05
2023-03-19T23:49:55.627Z,2.04
2023-03-19T23:52:24.143Z,2.07
2023-03-19T23:54:52.734Z,2.10
2023-03-19T23:57:21.615Z,2.10
2023-03-19T23:59:50.038Z,2.07
